Time;durP1;ratioP1;P1;durP2;ratioP2;P2;SDS_P1;SDS_P2;PMS_P1;PMS_P2;Temp;Humidity;BMP_temperature;BMP_pressure;BME280_temperature;BME280_humidity;BME280_pressure;Samples;Min_cycle;Max_cycle;Signal;HPM_P1;HPM_P2
2022/11/19 00:01:02;;;;;;;1.30;0.95;;;;;;;;;;5032406;28;20056;-75
2022/11/19 00:03:30;;;;;;;3.83;1.15;;;;;;;;;;5045366;28;20079;-73
2022/11/19 00:06:03;;;;;;;2.42;0.90;;;;;;;;;;5036668;28;20483;-75
2022/11/19 00:08:29;;;;;;;1.35;0.90;;;;;;;;;;5041827;28;20045;-72
2022/11/19 00:10:55;;;;;;;1.48;0.80;;;;;;;;;;5033951;28;20053;-74
2022/11/19 00:13:21;;;;;;;0.90;0.70;;;;;;;;;;5044471;28;20114;-74
2022/11/19 00:15:47;;;;;;;1.15;0.70;;;;;;;;;;5040949;28;20286;-73
2022/11/19 00:18:13;;;;;;;1.10;0.60;;;;;;;;;;5036785;28;20068;-74
2022/11/19 00:20:39;;;;;;;1.38;0.60;;;;;;;;;;5038072;28;20052;-73
2022/11/19 00:23:05;;;;;;;1.55;0.73;;;;;;;;;;5032608;28;20458;-74
2022/11/19 00:25:32;;;;;;;2.83;0.70;;;;;;;;;;5041856;28;20321;-73
2022/11/19 00:27:58;;;;;;;0.73;0.63;;;;;;;;;;5037911;28;20426;-73
2022/11/19 00:30:24;;;;;;;2.25;0.80;;;;;;;;;;5042144;28;20473;-71
2022/11/19 00:32:50;;;;;;;2.85;0.70;;;;;;;;;;5036492;28;20033;-72
2022/11/19 00:35:16;;;;;;;1.38;0.68;;;;;;;;;;5043445;28;20525;-74
2022/11/19 00:37:42;;;;;;;0.60;0.50;;;;;;;;;;5038704;28;20398;-74
2022/11/19 00:40:10;;;;;;;0.82;0.50;;;;;;;;;;5019615;28;20059;-73
2022/11/19 00:42:38;;;;;;;1.20;0.50;;;;;;;;;;5037122;28;20092;-71
2022/11/19 00:45:05;;;;;;;1.08;0.77;;;;;;;;;;5023653;28;20537;-73
2022/11/19 00:47:31;;;;;;;1.02;0.70;;;;;;;;;;5035891;28;20536;-72
2022/11/19 00:49:57;;;;;;;1.75;0.55;;;;;;;;;;5040803;28;20450;-70
2022/11/19 00:52:23;;;;;;;0.85;0.50;;;;;;;;;;5040086;28;20094;-71
2022/11/19 00:54:49;;;;;;;0.80;0.60;;;;;;;;;;5035545;28;20943;-72
2022/11/19 00:57:15;;;;;;;3.10;0.75;;;;;;;;;;5022869;28;20065;-72
2022/11/19 00:59:41;;;;;;;1.17;0.50;;;;;;;;;;5037946;28;20060;-72
2022/11/19 01:02:07;;;;;;;0.80;0.60;;;;;;;;;;5035762;28;20057;-72
2022/11/19 01:04:33;;;;;;;1.85;0.77;;;;;;;;;;5034677;28;20056;-71
2022/11/19 01:06:59;;;;;;;3.22;0.82;;;;;;;;;;5011526;28;20049;-71
2022/11/19 01:09:26;;;;;;;1.08;0.80;;;;;;;;;;5036604;28;20498;-71
2022/11/19 01:11:51;;;;;;;0.50;0.50;;;;;;;;;;5035971;28;20173;-71
2022/11/19 01:14:17;;;;;;;0.55;0.50;;;;;;;;;;5038192;28;20052;-72
2022/11/19 01:16:43;;;;;;;1.35;0.65;;;;;;;;;;5036096;28;20922;-73
2022/11/19 01:19:10;;;;;;;1.15;0.88;;;;;;;;;;5040424;28;20064;-69
2022/11/19 01:21:36;;;;;;;0.55;0.50;;;;;;;;;;5037368;28;20053;-71
2022/11/19 01:24:04;;;;;;;2.10;0.65;;;;;;;;;;5036284;28;20084;-70
2022/11/19 01:26:30;;;;;;;2.00;0.90;;;;;;;;;;5036624;28;20110;-70
2022/11/19 01:28:56;;;;;;;0.65;0.60;;;;;;;;;;5030421;28;20056;-70
2022/11/19 01:31:27;;;;;;;2.05;0.80;;;;;;;;;;5030365;28;20052;-72
2022/11/19 01:33:54;;;;;;;0.80;0.60;;;;;;;;;;5037435;28;20703;-71
2022/11/19 01:36:22;;;;;;;2.10;0.60;;;;;;;;;;5038280;28;20052;-70
2022/11/19 01:38:49;;;;;;;1.35;0.70;;;;;;;;;;5034009;28;20053;-69
2022/11/19 01:41:28;;;;;;;1.67;0.70;;;;;;;;;;5039929;28;20052;-71
2022/11/19 01:43:59;;;;;;;1.15;0.40;;;;;;;;;;5036851;28;20112;-71
2022/11/19 01:46:28;;;;;;;1.30;0.70;;;;;;;;;;5036935;28;20057;-70
2022/11/19 01:49:01;;;;;;;0.68;0.50;;;;;;;;;;5032545;28;20494;-73
2022/11/19 01:51:31;;;;;;;0.82;0.60;;;;;;;;;;5018928;28;21385;-72
2022/11/19 01:54:02;;;;;;;1.88;0.80;;;;;;;;;;5034236;28;20119;-71
2022/11/19 01:56:28;;;;;;;1.05;0.68;;;;;;;;;;5039189;28;20045;-71
2022/11/19 01:59:00;;;;;;;0.95;0.60;;;;;;;;;;5032519;28;20119;-70
2022/11/19 02:01:27;;;;;;;1.25;0.50;;;;;;;;;;5035834;28;20044;-69
2022/11/19 02:03:54;;;;;;;1.55;0.60;;;;;;;;;;5036941;28;20090;-71
2022/11/19 02:06:20;;;;;;;2.60;0.55;;;;;;;;;;5040609;28;20044;-70
2022/11/19 02:08:51;;;;;;;1.13;0.73;;;;;;;;;;5033228;28;20052;-70
2022/11/19 02:11:26;;;;;;;0.98;0.65;;;;;;;;;;5039937;28;20123;-70
2022/11/19 02:14:15;;;;;;;0.60;0.50;;;;;;;;;;5035627;28;20075;-69
2022/11/19 02:16:58;;;;;;;0.40;0.40;;;;;;;;;;5037174;28;20409;-71
2022/11/19 02:19:33;;;;;;;2.77;0.60;;;;;;;;;;5021136;28;20872;-70
2022/11/19 02:22:18;;;;;;;1.52;0.63;;;;;;;;;;5033359;28;20045;-71
2022/11/19 02:24:51;;;;;;;0.82;0.55;;;;;;;;;;5033622;28;20067;-72
2022/11/19 02:27:29;;;;;;;0.60;0.50;;;;;;;;;;5031791;28;20137;-71
2022/11/19 02:30:06;;;;;;;2.85;0.50;;;;;;;;;;5032841;28;20613;-72
2022/11/19 02:33:03;;;;;;;1.77;0.70;;;;;;;;;;5036372;28;20064;-71
2022/11/19 02:35:35;;;;;;;1.05;0.40;;;;;;;;;;5033059;28;20498;-74
2022/11/19 02:38:14;;;;;;;1.17;0.50;;;;;;;;;;5026416;28;20056;-71
2022/11/19 02:40:53;;;;;;;0.57;0.50;;;;;;;;;;5034610;28;20052;-70
2022/11/19 02:43:24;;;;;;;0.55;0.43;;;;;;;;;;5034437;28;20056;-71
2022/11/19 02:46:09;;;;;;;0.55;0.55;;;;;;;;;;5031639;28;20056;-70
2022/11/19 02:48:39;;;;;;;1.00;0.52;;;;;;;;;;5033840;28;20044;-71
2022/11/19 02:51:06;;;;;;;1.00;0.57;;;;;;;;;;5036919;28;20155;-70
2022/11/19 02:53:32;;;;;;;1.08;0.50;;;;;;;;;;5038199;28;20455;-69
2022/11/19 02:56:16;;;;;;;1.73;0.60;;;;;;;;;;5020046;28;20067;-72
2022/11/19 03:04:29;;;;;;;0.93;0.60;;;;;;;;;;5039429;28;20051;-71
2022/11/19 03:07:09;;;;;;;1.52;0.68;;;;;;;;;;5036562;28;20505;-69
2022/11/19 03:09:40;;;;;;;1.13;0.65;;;;;;;;;;5029953;28;20049;-72
2022/11/19 03:12:29;;;;;;;3.35;0.50;;;;;;;;;;5035264;28;20106;-69
2022/11/19 03:18:22;;;;;;;4.35;0.60;;;;;;;;;;5037608;28;20102;-70
2022/11/19 03:20:54;;;;;;;2.15;0.65;;;;;;;;;;5033626;28;20080;-70
2022/11/19 03:23:43;;;;;;;1.17;0.50;;;;;;;;;;5040293;28;20060;-71
2022/11/19 03:26:27;;;;;;;0.88;0.60;;;;;;;;;;5040976;28;20053;-70
2022/11/19 03:28:57;;;;;;;0.67;0.50;;;;;;;;;;5036020;28;20049;-72
2022/11/19 03:31:25;;;;;;;1.95;0.70;;;;;;;;;;5038333;28;20306;-71
2022/11/19 03:33:55;;;;;;;0.82;0.50;;;;;;;;;;5038922;28;20049;-70
2022/11/19 03:36:35;;;;;;;1.15;0.50;;;;;;;;;;5042656;28;20094;-70
2022/11/19 03:39:08;;;;;;;1.65;0.60;;;;;;;;;;5032231;28;20049;-69
2022/11/19 03:41:38;;;;;;;0.47;0.40;;;;;;;;;;5038499;28;20052;-68
2022/11/19 03:44:27;;;;;;;1.70;0.65;;;;;;;;;;5037757;28;20478;-70
2022/11/19 03:47:10;;;;;;;0.40;0.40;;;;;;;;;;5019187;28;20128;-70
2022/11/19 03:49:40;;;;;;;0.95;0.50;;;;;;;;;;5031589;28;20106;-70
2022/11/19 03:52:12;;;;;;;0.55;0.50;;;;;;;;;;5035643;28;20052;-74
2022/11/19 03:54:39;;;;;;;0.80;0.50;;;;;;;;;;5038640;28;20282;-69
2022/11/19 03:57:06;;;;;;;1.85;0.60;;;;;;;;;;5033282;28;20560;-69
2022/11/19 03:59:33;;;;;;;2.63;0.57;;;;;;;;;;5030978;28;20075;-73
2022/11/19 04:02:06;;;;;;;0.40;0.38;;;;;;;;;;5018950;28;20413;-70
2022/11/19 04:04:38;;;;;;;2.63;0.63;;;;;;;;;;5035218;28;20387;-71
2022/11/19 04:07:10;;;;;;;0.88;0.60;;;;;;;;;;5034183;28;20049;-70
2022/11/19 04:09:37;;;;;;;0.95;0.50;;;;;;;;;;5024164;28;20516;-71
2022/11/19 04:12:04;;;;;;;0.47;0.47;;;;;;;;;;5033481;28;20333;-72
2022/11/19 04:14:30;;;;;;;2.55;1.83;;;;;;;;;;5037929;28;20099;-73
2022/11/19 04:16:56;;;;;;;1.65;0.60;;;;;;;;;;5039742;28;20111;-70
2022/11/19 04:19:22;;;;;;;0.55;0.47;;;;;;;;;;5037384;28;20359;-70
2022/11/19 04:21:49;;;;;;;1.10;0.65;;;;;;;;;;5035377;28;20049;-69
2022/11/19 04:24:15;;;;;;;0.88;0.70;;;;;;;;;;5037665;28;20048;-71
2022/11/19 04:26:41;;;;;;;0.75;0.50;;;;;;;;;;5036628;28;20057;-69
2022/11/19 04:29:07;;;;;;;1.80;0.70;;;;;;;;;;5031377;28;20045;-72
2022/11/19 04:31:33;;;;;;;2.25;0.60;;;;;;;;;;5036464;28;20075;-72
2022/11/19 04:33:59;;;;;;;0.60;0.57;;;;;;;;;;5037977;28;20450;-71
2022/11/19 04:36:25;;;;;;;0.88;0.50;;;;;;;;;;5037774;28;20204;-71
2022/11/19 04:38:51;;;;;;;1.25;0.73;;;;;;;;;;5033794;28;20526;-71
2022/11/19 04:41:17;;;;;;;0.98;0.60;;;;;;;;;;5034858;28;20090;-72
2022/11/19 04:43:43;;;;;;;1.38;0.50;;;;;;;;;;5034549;28;20068;-70
2022/11/19 04:46:09;;;;;;;1.85;0.70;;;;;;;;;;5018598;28;20422;-70
2022/11/19 04:48:34;;;;;;;1.88;0.70;;;;;;;;;;5039991;28;20479;-71
2022/11/19 04:51:00;;;;;;;1.63;0.80;;;;;;;;;;5022438;28;20056;-70
2022/11/19 04:53:26;;;;;;;2.83;0.88;;;;;;;;;;5037163;28;20054;-71
2022/11/19 04:55:52;;;;;;;1.95;1.30;;;;;;;;;;5040904;28;20052;-73
2022/11/19 04:58:18;;;;;;;1.50;0.85;;;;;;;;;;5036413;28;20380;-70
2022/11/19 05:00:44;;;;;;;2.38;0.73;;;;;;;;;;5033420;28;20367;-70
2022/11/19 05:03:10;;;;;;;1.60;0.70;;;;;;;;;;5031841;28;20068;-69
2022/11/19 05:05:36;;;;;;;1.65;0.50;;;;;;;;;;5038887;28;20037;-70
2022/11/19 05:08:02;;;;;;;0.60;0.40;;;;;;;;;;5030916;28;20095;-69
2022/11/19 05:10:27;;;;;;;0.70;0.50;;;;;;;;;;5038830;28;20049;-70
2022/11/19 05:12:53;;;;;;;0.88;0.68;;;;;;;;;;5030929;28;20057;-70
2022/11/19 05:15:19;;;;;;;3.28;0.60;;;;;;;;;;5034865;28;20041;-71
2022/11/19 05:17:46;;;;;;;1.88;0.63;;;;;;;;;;5033968;28;20461;-70
2022/11/19 05:20:13;;;;;;;1.27;0.60;;;;;;;;;;5035460;28;20052;-70
2022/11/19 05:22:39;;;;;;;3.45;0.60;;;;;;;;;;5034396;28;20118;-70
2022/11/19 05:25:05;;;;;;;1.48;0.60;;;;;;;;;;5020035;28;20036;-70
2022/11/19 05:27:31;;;;;;;0.77;0.50;;;;;;;;;;5035912;28;20110;-68
2022/11/19 05:29:57;;;;;;;1.40;0.70;;;;;;;;;;5032635;28;20045;-69
2022/11/19 05:32:23;;;;;;;0.70;0.50;;;;;;;;;;5032997;28;20506;-69
2022/11/19 05:34:48;;;;;;;0.68;0.50;;;;;;;;;;5023914;28;20063;-70
2022/11/19 05:37:14;;;;;;;1.63;0.60;;;;;;;;;;5031519;28;20127;-70
2022/11/19 05:39:40;;;;;;;0.80;0.57;;;;;;;;;;5032041;28;20645;-71
2022/11/19 05:42:06;;;;;;;1.60;0.50;;;;;;;;;;5037922;28;20052;-70
2022/11/19 05:44:32;;;;;;;0.80;0.50;;;;;;;;;;5036895;28;20048;-71
2022/11/19 05:46:58;;;;;;;1.83;0.60;;;;;;;;;;5032907;28;20067;-70
2022/11/19 05:49:24;;;;;;;2.13;1.02;;;;;;;;;;5033018;28;20041;-71
2022/11/19 05:51:50;;;;;;;1.98;0.70;;;;;;;;;;5035536;28;20621;-70
2022/11/19 05:54:16;;;;;;;2.08;0.93;;;;;;;;;;5040400;28;20048;-70
2022/11/19 05:56:43;;;;;;;1.92;0.80;;;;;;;;;;5035324;28;20110;-68
2022/11/19 05:59:08;;;;;;;1.17;0.90;;;;;;;;;;5017301;28;20158;-71
2022/11/19 06:01:35;;;;;;;3.67;1.17;;;;;;;;;;5034029;28;20053;-70
2022/11/19 06:04:00;;;;;;;6.15;1.63;;;;;;;;;;5012999;28;20053;-69
2022/11/19 06:06:27;;;;;;;1.55;1.00;;;;;;;;;;5037189;28;20045;-71
2022/11/19 06:08:52;;;;;;;3.63;1.30;;;;;;;;;;5032681;28;20098;-70
2022/11/19 06:14:03;;;;;;;1.00;0.85;;;;;;;;;;5034750;28;20151;-70
2022/11/19 06:16:29;;;;;;;1.10;0.60;;;;;;;;;;5034356;28;20660;-69
2022/11/19 06:18:55;;;;;;;3.28;0.80;;;;;;;;;;5028052;28;20067;-69
2022/11/19 06:21:22;;;;;;;0.70;0.55;;;;;;;;;;5036444;28;20053;-70
2022/11/19 06:23:47;;;;;;;1.23;0.60;;;;;;;;;;5036550;28;20422;-69
2022/11/19 06:26:27;;;;;;;1.65;0.85;;;;;;;;;;5035496;28;20506;-70
2022/11/19 06:28:54;;;;;;;1.50;0.60;;;;;;;;;;5033199;28;20063;-71
2022/11/19 06:31:21;;;;;;;1.15;0.65;;;;;;;;;;5038711;28;20400;-70
2022/11/19 06:33:47;;;;;;;1.17;0.50;;;;;;;;;;5036154;28;20964;-70
2022/11/19 06:36:14;;;;;;;2.25;0.80;;;;;;;;;;5041477;28;20146;-70
2022/11/19 06:38:40;;;;;;;2.00;0.50;;;;;;;;;;5032950;28;20065;-71
2022/11/19 06:41:06;;;;;;;4.78;0.70;;;;;;;;;;5037146;28;20053;-71
2022/11/19 06:43:31;;;;;;;0.60;0.60;;;;;;;;;;5038145;28;20052;-69
2022/11/19 06:45:58;;;;;;;1.48;0.70;;;;;;;;;;5035531;28;20036;-71
2022/11/19 06:48:23;;;;;;;0.93;0.80;;;;;;;;;;5031137;28;20056;-70
2022/11/19 06:50:49;;;;;;;0.95;0.90;;;;;;;;;;5041736;28;20703;-72
2022/11/19 06:53:15;;;;;;;2.42;0.95;;;;;;;;;;5041194;28;20336;-70
2022/11/19 06:55:41;;;;;;;2.33;0.80;;;;;;;;;;5036707;28;20505;-70
2022/11/19 06:58:07;;;;;;;0.75;0.70;;;;;;;;;;5030406;28;20348;-70
2022/11/19 07:00:34;;;;;;;5.03;0.73;;;;;;;;;;5038614;28;20406;-70
2022/11/19 07:03:00;;;;;;;1.67;0.75;;;;;;;;;;5036348;28;20215;-71
2022/11/19 07:05:26;;;;;;;3.60;0.77;;;;;;;;;;5044715;28;20049;-71
2022/11/19 07:07:52;;;;;;;1.40;0.90;;;;;;;;;;5041282;28;20541;-71
2022/11/19 07:10:18;;;;;;;0.93;0.50;;;;;;;;;;5033529;28;21273;-71
2022/11/19 07:12:44;;;;;;;1.48;0.70;;;;;;;;;;5035719;28;21230;-73
2022/11/19 07:15:10;;;;;;;5.28;1.00;;;;;;;;;;5017206;28;20186;-72
2022/11/19 07:17:36;;;;;;;1.55;0.82;;;;;;;;;;5039771;28;20049;-71
2022/11/19 07:20:05;;;;;;;1.13;0.65;;;;;;;;;;5032724;28;20125;-72
2022/11/19 07:22:31;;;;;;;4.03;0.90;;;;;;;;;;5030940;28;20514;-70
2022/11/19 07:24:57;;;;;;;4.55;0.70;;;;;;;;;;5037141;28;20207;-72
2022/11/19 07:27:23;;;;;;;1.55;0.80;;;;;;;;;;5034155;28;20064;-70
2022/11/19 07:29:49;;;;;;;2.17;0.82;;;;;;;;;;5035042;28;20103;-69
2022/11/19 07:32:15;;;;;;;4.30;0.90;;;;;;;;;;5032139;28;20052;-71
2022/11/19 07:34:41;;;;;;;8.80;1.15;;;;;;;;;;5033947;28;20570;-74
2022/11/19 07:37:07;;;;;;;1.20;0.88;;;;;;;;;;5033598;28;20052;-69
2022/11/19 07:39:33;;;;;;;1.48;1.00;;;;;;;;;;5034259;28;20118;-70
2022/11/19 07:44:44;;;;;;;3.50;0.80;;;;;;;;;;5032971;28;20060;-71
2022/11/19 07:47:09;;;;;;;1.48;0.60;;;;;;;;;;5034423;28;20466;-70
2022/11/19 07:49:35;;;;;;;2.97;0.88;;;;;;;;;;5031511;28;20462;-72
2022/11/19 07:52:01;;;;;;;2.00;0.77;;;;;;;;;;5032104;28;20044;-74
2022/11/19 07:54:27;;;;;;;1.90;1.10;;;;;;;;;;5035998;28;20045;-71
2022/11/19 07:56:53;;;;;;;1.30;0.80;;;;;;;;;;5027928;28;20053;-72
2022/11/19 07:59:19;;;;;;;2.40;1.02;;;;;;;;;;5027539;28;20545;-71
2022/11/19 08:01:45;;;;;;;1.02;0.85;;;;;;;;;;5031593;28;20053;-72
2022/11/19 08:04:11;;;;;;;1.98;0.98;;;;;;;;;;5026626;28;20065;-70
2022/11/19 08:06:37;;;;;;;2.38;1.10;;;;;;;;;;5034862;28;20059;-71
2022/11/19 08:09:04;;;;;;;1.10;0.88;;;;;;;;;;5034449;28;20060;-73
2022/11/19 08:11:30;;;;;;;1.67;0.77;;;;;;;;;;5033487;28;20102;-71
2022/11/19 08:14:00;;;;;;;2.80;0.90;;;;;;;;;;5029629;28;20053;-69
2022/11/19 08:19:12;;;;;;;;;;;;;;;;;;5031047;28;20065;-71
2022/11/19 08:21:40;;;;;;;3.28;0.90;;;;;;;;;;5013703;28;20694;-71
2022/11/19 08:24:07;;;;;;;2.40;1.20;;;;;;;;;;5023361;28;20053;-71
2022/11/19 08:26:33;;;;;;;2.63;0.82;;;;;;;;;;5027100;28;20062;-72
2022/11/19 08:28:59;;;;;;;1.88;0.90;;;;;;;;;;5006427;28;20138;-70
2022/11/19 08:31:25;;;;;;;3.47;0.90;;;;;;;;;;5012574;28;20520;-71
2022/11/19 08:33:52;;;;;;;1.98;0.80;;;;;;;;;;5032590;28;20059;-70
2022/11/19 08:36:18;;;;;;;1.40;1.00;;;;;;;;;;5034187;28;20049;-74
2022/11/19 08:38:44;;;;;;;3.53;1.20;;;;;;;;;;5020320;28;20072;-72
2022/11/19 08:43:54;;;;;;;;;;;;;;;;;;5037881;28;20060;-72
2022/11/19 08:46:20;;;;;;;1.27;0.73;;;;;;;;;;5036036;28;20302;-70
2022/11/19 08:48:46;;;;;;;6.15;1.33;;;;;;;;;;5002880;28;20109;-72
2022/11/19 08:51:13;;;;;;;1.73;0.85;;;;;;;;;;5024679;28;20379;-71
2022/11/19 08:53:39;;;;;;;6.82;1.77;;;;;;;;;;5025668;28;20521;-71
2022/11/19 08:56:06;;;;;;;2.70;1.40;;;;;;;;;;5025703;28;20044;-74
2022/11/19 08:58:32;;;;;;;1.58;0.80;;;;;;;;;;5020375;28;20057;-69
2022/11/19 09:00:58;;;;;;;2.28;0.98;;;;;;;;;;5030468;28;20460;-72
2022/11/19 09:03:24;;;;;;;3.42;1.77;;;;;;;;;;5017055;28;20053;-71
2022/11/19 09:05:59;;;;;;;2.53;1.15;;;;;;;;;;5026099;28;20080;-75
2022/11/19 09:08:26;;;;;;;2.47;1.08;;;;;;;;;;5025505;28;20053;-69
2022/11/19 09:10:51;;;;;;;3.85;1.27;;;;;;;;;;5032490;28;20477;-70
2022/11/19 09:13:18;;;;;;;3.80;1.00;;;;;;;;;;5027263;28;20826;-71
2022/11/19 09:15:47;;;;;;;1.40;0.82;;;;;;;;;;5029375;28;20073;-72
2022/11/19 09:18:14;;;;;;;1.95;0.80;;;;;;;;;;5020399;28;20183;-76
2022/11/19 09:20:40;;;;;;;2.38;1.00;;;;;;;;;;5026116;28;20049;-70
2022/11/19 09:23:06;;;;;;;3.30;0.95;;;;;;;;;;5021880;28;20047;-73
2022/11/19 09:25:32;;;;;;;2.55;0.88;;;;;;;;;;5028150;28;20045;-73
2022/11/19 09:27:59;;;;;;;1.92;0.70;;;;;;;;;;5024713;28;20486;-72
2022/11/19 09:30:25;;;;;;;1.77;0.90;;;;;;;;;;5028076;28;20340;-72
2022/11/19 09:32:51;;;;;;;1.98;0.68;;;;;;;;;;5028109;28;20060;-75
2022/11/19 09:35:17;;;;;;;1.27;0.82;;;;;;;;;;5022679;28;20044;-72
2022/11/19 09:37:44;;;;;;;1.23;0.55;;;;;;;;;;5019593;28;20623;-71
2022/11/19 09:40:20;;;;;;;4.65;0.90;;;;;;;;;;5006645;28;20057;-76
2022/11/19 09:43:02;;;;;;;3.05;0.73;;;;;;;;;;5028064;28;20054;-73
2022/11/19 09:45:37;;;;;;;1.90;0.95;;;;;;;;;;5026740;28;20456;-72
2022/11/19 09:48:15;;;;;;;1.80;0.90;;;;;;;;;;5017752;28;20049;-74
2022/11/19 09:50:54;;;;;;;1.40;0.80;;;;;;;;;;5030906;28;20044;-71
2022/11/19 09:53:22;;;;;;;1.33;0.70;;;;;;;;;;5049656;28;20389;-69
2022/11/19 09:55:51;;;;;;;2.00;0.82;;;;;;;;;;5024590;28;20082;-70
2022/11/19 09:58:31;;;;;;;4.93;1.02;;;;;;;;;;5031256;28;21229;-71
2022/11/19 10:00:58;;;;;;;4.60;0.90;;;;;;;;;;5027678;28;20258;-71
2022/11/19 10:03:25;;;;;;;1.48;0.73;;;;;;;;;;5031769;28;20064;-72
2022/11/19 10:06:03;;;;;;;1.83;0.93;;;;;;;;;;5027105;28;20087;-70
2022/11/19 10:08:32;;;;;;;1.08;0.75;;;;;;;;;;5034292;28;20060;-75
2022/11/19 10:11:24;;;;;;;1.33;0.63;;;;;;;;;;5030902;28;20387;-70
2022/11/19 10:14:01;;;;;;;1.65;0.60;;;;;;;;;;5026787;28;20061;-79
2022/11/19 10:16:43;;;;;;;1.15;0.65;;;;;;;;;;5035236;28;20144;-72
2022/11/19 10:19:41;;;;;;;1.60;1.13;;;;;;;;;;5027182;28;20061;-75
2022/11/19 10:22:19;;;;;;;1.83;0.80;;;;;;;;;;5017688;28;20056;-72
2022/11/19 10:25:13;;;;;;;1.40;0.90;;;;;;;;;;5028417;28;20673;-72
2022/11/19 10:27:45;;;;;;;4.05;0.90;;;;;;;;;;5031528;28;20179;-80
2022/11/19 10:30:15;;;;;;;0.90;0.65;;;;;;;;;;5025915;28;20164;-75
2022/11/19 10:33:02;;;;;;;0.82;0.57;;;;;;;;;;5029230;28;20064;-74
2022/11/19 10:35:44;;;;;;;2.72;0.93;;;;;;;;;;5034072;28;20099;-75
2022/11/19 10:38:22;;;;;;;2.85;1.30;;;;;;;;;;5031072;28;20094;-72
2022/11/19 10:40:56;;;;;;;0.60;0.60;;;;;;;;;;5032323;28;20953;-72
2022/11/19 10:43:40;;;;;;;1.90;0.80;;;;;;;;;;5014343;28;20060;-71
2022/11/19 10:46:09;;;;;;;2.17;0.50;;;;;;;;;;5031794;28;20789;-73
2022/11/19 10:48:42;;;;;;;7.43;0.75;;;;;;;;;;5021733;28;20468;-72
2022/11/19 10:51:19;;;;;;;1.33;0.80;;;;;;;;;;5025635;28;20053;-73
2022/11/19 10:53:45;;;;;;;2.20;1.00;;;;;;;;;;5037154;28;20048;-73
2022/11/19 10:56:16;;;;;;;1.83;1.05;;;;;;;;;;5038181;28;20796;-75
2022/11/19 10:58:47;;;;;;;0.85;0.60;;;;;;;;;;5034954;28;20977;-73
2022/11/19 11:01:22;;;;;;;3.25;0.80;;;;;;;;;;5035235;28;20114;-72
2022/11/19 11:03:55;;;;;;;0.43;0.40;;;;;;;;;;5031062;28;20135;-71
2022/11/19 11:06:21;;;;;;;1.60;0.50;;;;;;;;;;5040484;28;20048;-75
2022/11/19 11:08:54;;;;;;;1.30;0.60;;;;;;;;;;5036603;28;20430;-73
2022/11/19 11:17:15;;;;;;;1.10;0.85;;;;;;;;;;5036137;28;20069;-74
2022/11/19 11:19:41;;;;;;;4.30;0.90;;;;;;;;;;5031786;28;20152;-72
2022/11/19 11:22:08;;;;;;;0.60;0.60;;;;;;;;;;5036882;28;20175;-72
2022/11/19 11:24:37;;;;;;;2.63;0.80;;;;;;;;;;5034508;28;20057;-70
2022/11/19 11:27:23;;;;;;;0.73;0.68;;;;;;;;;;5034558;28;20406;-72
2022/11/19 11:30:04;;;;;;;1.83;0.55;;;;;;;;;;5035965;28;20078;-70
2022/11/19 11:32:31;;;;;;;1.20;0.60;;;;;;;;;;5040108;28;20053;-70
2022/11/19 11:34:57;;;;;;;2.85;0.60;;;;;;;;;;5039165;28;20425;-74
2022/11/19 11:37:27;;;;;;;2.25;0.50;;;;;;;;;;5030874;28;20448;-74
2022/11/19 11:39:54;;;;;;;1.50;0.80;;;;;;;;;;5035400;28;20037;-70
2022/11/19 11:42:25;;;;;;;7.47;0.68;;;;;;;;;;5032504;28;20287;-71
2022/11/19 11:44:54;;;;;;;2.83;0.50;;;;;;;;;;5037710;28;20052;-71
2022/11/19 11:47:31;;;;;;;1.85;0.40;;;;;;;;;;5032674;28;20134;-76
2022/11/19 11:50:22;;;;;;;0.32;0.28;;;;;;;;;;5036983;28;20048;-73
2022/11/19 11:52:50;;;;;;;7.07;0.90;;;;;;;;;;5004551;28;20083;-74
2022/11/19 11:55:22;;;;;;;1.00;0.80;;;;;;;;;;5035569;28;20510;-71
2022/11/19 11:57:57;;;;;;;0.93;0.45;;;;;;;;;;5035377;28;20071;-69
2022/11/19 12:00:33;;;;;;;;;;;;;;;;;;5032181;28;21252;-72
2022/11/19 12:03:02;;;;;;;1.67;0.50;;;;;;;;;;5036706;28;19932;-74
2022/11/19 12:05:38;;;;;;;5.03;0.60;;;;;;;;;;5035404;28;20497;-71
2022/11/19 12:08:44;;;;;;;1.30;0.50;;;;;;;;;;5030553;28;20071;-71
2022/11/19 12:11:25;;;;;;;2.38;0.70;;;;;;;;;;5038345;28;20485;-70
2022/11/19 12:14:10;;;;;;;0.55;0.40;;;;;;;;;;5040466;28;20056;-70
2022/11/19 12:16:50;;;;;;;2.08;0.45;;;;;;;;;;5041642;28;20122;-70
2022/11/19 12:19:30;;;;;;;0.90;0.60;;;;;;;;;;5035792;28;20057;-72
2022/11/19 12:22:19;;;;;;;1.20;0.60;;;;;;;;;;5043375;28;20052;-71
2022/11/19 12:24:48;;;;;;;3.70;0.63;;;;;;;;;;5037343;28;20053;-71
2022/11/19 12:27:45;;;;;;;0.85;0.60;;;;;;;;;;5031936;28;20062;-69
2022/11/19 12:30:37;;;;;;;1.50;0.90;;;;;;;;;;5029432;28;20502;-70
2022/11/19 12:33:06;;;;;;;1.20;0.45;;;;;;;;;;5021326;28;20080;-71
2022/11/19 12:35:51;;;;;;;1.83;0.80;;;;;;;;;;5033603;28;20052;-72
2022/11/19 12:38:29;;;;;;;2.08;0.60;;;;;;;;;;5028957;28;20336;-72
2022/11/19 12:41:26;;;;;;;5.95;0.60;;;;;;;;;;5039309;28;20052;-70
2022/11/19 12:43:55;;;;;;;0.60;0.60;;;;;;;;;;5037973;28;20528;-75
2022/11/19 12:46:36;;;;;;;11.75;0.90;;;;;;;;;;5038745;28;20071;-74
2022/11/19 12:49:11;;;;;;;1.35;0.70;;;;;;;;;;5040090;28;20403;-74
2022/11/19 12:51:40;;;;;;;1.40;0.70;;;;;;;;;;5046790;28;20045;-74
2022/11/19 12:54:15;;;;;;;2.67;0.80;;;;;;;;;;5039641;28;20048;-73
2022/11/19 12:57:03;;;;;;;2.38;0.90;;;;;;;;;;5036633;28;20106;-75
2022/11/19 12:59:49;;;;;;;3.58;0.82;;;;;;;;;;5036710;28;21531;-75
2022/11/19 13:02:24;;;;;;;0.80;0.55;;;;;;;;;;5030655;28;20064;-79
2022/11/19 13:05:11;;;;;;;;;;;;;;;;;;5044132;28;20044;-73
2022/11/19 13:07:44;;;;;;;1.52;0.65;;;;;;;;;;5044729;28;20020;-74
2022/11/19 13:10:18;;;;;;;2.10;0.73;;;;;;;;;;5044441;28;20445;-73
2022/11/19 13:12:51;;;;;;;3.72;0.98;;;;;;;;;;5045319;28;20049;-76
2022/11/19 13:15:20;;;;;;;0.50;0.30;;;;;;;;;;5043090;28;21315;-72
2022/11/19 13:17:51;;;;;;;1.35;0.70;;;;;;;;;;5040674;28;20056;-78
2022/11/19 13:20:29;;;;;;;5.07;1.13;;;;;;;;;;5022515;28;20469;-74
2022/11/19 13:23:01;;;;;;;3.38;0.82;;;;;;;;;;5039878;28;20091;-76
2022/11/19 13:25:29;;;;;;;3.60;1.08;;;;;;;;;;5042589;28;20454;-73
2022/11/19 13:28:00;;;;;;;3.20;0.95;;;;;;;;;;5029165;28;21018;-78
2022/11/19 13:30:28;;;;;;;2.38;0.88;;;;;;;;;;5031977;28;20049;-77
2022/11/19 13:33:27;;;;;;;0.80;0.70;;;;;;;;;;5034869;28;20048;-79
2022/11/19 13:36:04;;;;;;;2.90;1.10;;;;;;;;;;4996862;28;20084;-73
2022/11/19 13:38:52;;;;;;;3.47;1.40;;;;;;;;;;4990271;28;21045;-70
2022/11/19 13:41:30;;;;;;;1.88;1.05;;;;;;;;;;4989081;28;20611;-78
2022/11/19 13:46:57;;;;;;;3.70;1.27;;;;;;;;;;4988495;28;20411;-74
2022/11/19 13:49:36;;;;;;;3.05;1.70;;;;;;;;;;4984445;28;20054;-75
2022/11/19 13:52:28;;;;;;;1.40;0.85;;;;;;;;;;4986140;28;20483;-73
2022/11/19 13:54:56;;;;;;;2.30;0.88;;;;;;;;;;4990410;28;20081;-73
2022/11/19 13:57:32;;;;;;;1.70;0.70;;;;;;;;;;4990585;28;20050;-73
2022/11/19 14:00:04;;;;;;;1.40;0.80;;;;;;;;;;4979636;28;20287;-72
2022/11/19 14:02:49;;;;;;;2.85;0.50;;;;;;;;;;4988949;28;20052;-70
2022/11/19 14:05:40;;;;;;;0.90;0.60;;;;;;;;;;4989870;28;20399;-74
2022/11/19 14:08:33;;;;;;;1.35;0.50;;;;;;;;;;4985618;28;20062;-74
2022/11/19 14:11:24;;;;;;;1.70;0.70;;;;;;;;;;5007830;28;20606;-71
2022/11/19 14:26:18;;;;;;;5.68;1.17;;;;;;;;;;5036619;28;20164;-75
2022/11/19 14:28:53;;;;;;;2.95;0.75;;;;;;;;;;5035379;28;20430;-78
2022/11/19 14:31:19;;;;;;;1.30;0.60;;;;;;;;;;5034250;28;20338;-80
2022/11/19 14:33:45;;;;;;;1.73;0.70;;;;;;;;;;5031423;28;20071;-75
2022/11/19 14:36:19;;;;;;;1.90;0.80;;;;;;;;;;5039470;28;20041;-76
2022/11/19 14:38:53;;;;;;;1.05;0.68;;;;;;;;;;5036233;28;20060;-78
2022/11/19 14:41:30;;;;;;;0.52;0.50;;;;;;;;;;5030609;28;20049;-74
2022/11/19 14:44:09;;;;;;;5.25;1.42;;;;;;;;;;5029951;28;20061;-73
2022/11/19 14:46:41;;;;;;;2.30;0.60;;;;;;;;;;5038154;28;20041;-72
2022/11/19 14:49:34;;;;;;;4.80;0.70;;;;;;;;;;5020036;28;20502;-73
2022/11/19 14:52:01;;;;;;;2.30;0.80;;;;;;;;;;5038838;28;20068;-73
2022/11/19 14:54:38;;;;;;;2.97;0.40;;;;;;;;;;5037548;28;20049;-74
2022/11/19 14:57:06;;;;;;;1.13;0.40;;;;;;;;;;5032316;28;20070;-74
2022/11/19 14:59:36;;;;;;;1.55;0.63;;;;;;;;;;5038398;28;20057;-73
2022/11/19 15:02:17;;;;;;;0.88;0.70;;;;;;;;;;5039333;28;20048;-71
2022/11/19 15:05:12;;;;;;;1.20;0.65;;;;;;;;;;5043894;28;20048;-72
2022/11/19 15:07:47;;;;;;;1.33;0.57;;;;;;;;;;5031330;28;20049;-73
2022/11/19 15:10:13;;;;;;;0.98;0.55;;;;;;;;;;5040321;28;20553;-72
2022/11/19 15:12:42;;;;;;;1.70;0.65;;;;;;;;;;5044932;28;20048;-74
2022/11/19 15:15:23;;;;;;;0.50;0.50;;;;;;;;;;5034215;28;20060;-71
2022/11/19 15:18:01;;;;;;;1.10;0.50;;;;;;;;;;5035393;28;20059;-71
2022/11/19 15:20:39;;;;;;;0.93;0.43;;;;;;;;;;5041586;28;20355;-71
2022/11/19 15:23:21;;;;;;;0.93;0.55;;;;;;;;;;5035658;28;20065;-71
2022/11/19 15:26:06;;;;;;;3.90;0.95;;;;;;;;;;5041269;28;20060;-74
2022/11/19 15:28:53;;;;;;;1.10;0.55;;;;;;;;;;5028037;28;20057;-71
2022/11/19 15:31:27;;;;;;;1.45;0.55;;;;;;;;;;5041621;28;20056;-70
2022/11/19 15:34:41;;;;;;;0.77;0.57;;;;;;;;;;5038343;28;20069;-73
2022/11/19 15:37:14;;;;;;;0.65;0.50;;;;;;;;;;5038073;28;20044;-73
2022/11/19 15:39:55;;;;;;;6.40;0.60;;;;;;;;;;5028492;28;20049;-71
2022/11/19 15:42:31;;;;;;;1.58;0.40;;;;;;;;;;5039120;28;20049;-73
2022/11/19 15:45:11;;;;;;;1.15;0.50;;;;;;;;;;5036825;28;20060;-72
2022/11/19 15:48:06;;;;;;;1.05;0.40;;;;;;;;;;5040309;28;20124;-73
2022/11/19 15:50:34;;;;;;;2.53;0.57;;;;;;;;;;5022794;28;20082;-72